Sleepy Eye, MN (56085)

9:43 PM CDT on July 22, 2014 (GMT -0500)
Sleepy Eye Airport (KMNSLEEP1) Elev 994 ft | 44.25 °N, 94.71 °W | Change Station

Current weather conditions updated 8 seconds ago

Partly Cloudy
Partly Cloudy
70.2 °F
Feels Like 74 °F
N
6.0
Wind Variable Wind from NW
Gusts 11.0 mph

Tomorrow is forecast to be nearly the same temperature as today.

Today
High -- | Low -- °F
--% Chance of Precip.
Yesterday
High -- | Low -- °F
Precip. -- in
5:55 AM 8:54 PM
Waning Crescent, 13% visible
Pressure 30.15 in
Visibility 10.0 miles
Clouds Clear
Heat Index 74 °F
Dew Point 60 °F
Humidity 71%
Rainfall 0.00 in
Snow Depth Not available.
UV 0.0 out of 12
Pollen 3.00 out of 12
Air Quality Not available.
Flu Activity Not available.
METAR KULM 230234Z AUTO 33007KT 10SM CLR 22/14 A3015 RMK AO2

More Conditions Fewer Conditions

Pressure 30.15 in
Visibility 10.0 miles
Clouds Clear
Heat Index 74 °F
Dew Point 60 °F
Humidity 71%
Rainfall 0.00 in
Snow Depth Not available.
UV 0.0 out of 12
Pollen 3.00 out of 12
Air Quality Not available.
Flu Activity Not available.
METAR KULM 230234Z AUTO 33007KT 10SM CLR 22/14 A3015 RMK AO2

More Conditions Fewer Conditions

10-Day Weather Forecast

Almanac

Astronomy

Jul. 22, 2014 Rise Set
Actual Time 5:55 AM CDT 8:54 PM CDT
Civil Twilight 5:21 AM CDT 9:28 PM CDT
Nautical Twilight 4:37 AM CDT 10:12 PM CDT
Astronomical Twilight 3:44 AM CDT 11:04 PM CDT
Moon 2:31 AM CDT (7/22) 5:31 PM CDT (7/22)
Length of Visible Light 16h 07m
Length of Day
14h 58m
Tomorrow will be 1m 58s shorter.
Waning Crescent, 13% of the Moon is Illuminated
Today
Waning Crescent
Jul 26
New
Aug 3
First Quarter
Aug 10
Full
Aug 17
Last Quarter

Today's Extremes

State Highs State Lows

Community

WunderPhotos

Upload Photos

1,736,460 photos uploaded!

Nearby

Snow Depth

Station Depth Elevation
No new snow has been reported.

Earthquake Activity

City Distance Mag. Time & Date
No recent earthquake activity has been reported nearby.
Minimum magnitude displayed is 2.5.

Coastal Water Temperatures

Place Temperature
No Stations Reporting

Nearby Weather Stations

Station Location Temp. Heat Index Dew Point Humidity Wind Precip. Elev Updated Type
Sleepy Eye Airport, Sleepy Eye, MN 70.2 °F 74 °F 60 °F 71% NW  at  6.0 mph 0.00 in / hr 994 ft 9:43 PM CDT Rapid Fire
Martin Luther College, New Ulm, MN 72.8 °F 76 °F 59 °F 62% NNW  at  4.0 mph 0.00 in / hr 980 ft 9:43 PM CDT Rapid Fire
Ryan Farms, Springfield, MN 64.4 °F - 60 °F 84% NNE  at  0.0 mph 0.00 in / hr 1076 ft 9:43 PM CDT Normal
Thompson Farms, Hanska, MN 68.0 °F - 60 °F 75% NW  at  4.0 mph 0.00 in / hr 988 ft 9:43 PM CDT Rapid Fire
West of High School, Madelia, MN 71.5 °F 75 °F 60 °F 68% NW  at  0.0 mph 0.00 in / hr 981 ft 9:43 PM CDT Rapid Fire
Redwood Falls, Redwood Falls, MN 67.1 °F - 59 °F 76% NW  at  2.0 mph 0.00 in / hr 1053 ft 9:39 PM CDT Normal
Engles Farm, Lake Crystal, MN 70.9 °F 75 °F 58 °F 65% NNE  at  0.0 mph 0.00 in / hr 988 ft 9:30 PM CDT Normal

Show More Stations Show Fewer Stations